Main page
METAR-TAF:

METAR-TAF

Airports :

Leeds Bradford, England

Leeds Bradford Airport

latitude: 53-52N, longitude: 001-39W, elevation: 208 m

Current weather observation

The report was made 27 minutes ago, at 22:50 UTC
Wind 5 kt from the West/Southwest, varying between South/Southwest and West
Temperature 12°C
Humidity 100%
Pressure 1013 hPa
Visibility 10 km or more
no clouds below 1500 m and no cumulonimbus

METAR: EGNM 232250Z 24005KT 210V270 CAVOK 12/12 Q1013

Time: 00:17 (23:17 UTC)

Forecast

The report was made 6 hours and 20 minutes ago, at 16:57 UTC
Forecast valid from 23 at 18 UTC to 24 at 18 UTC
Wind 10 kt from the West
Visibility 10 km or more
Scattered clouds at a height of 3000 ft

TAF: EGNM 231657Z 2318/2418 26010KT 9999 SCT030

Weather observations and forecasts of more than 4000 airports (METAR and TAF reports).

The available stations are represented by yellow and red dots on the map.

Hover mouse over dot to see the name of the station.

Then click to see weather observations and forecasts.

To change the map : click on the green buttons with a black cross to zoom in, on the green button with a dash to zoom out, or on the green arrows for adjacent maps.


METAR-TAF: